Urban, Kentucky
Current Conditions -  °F | °C
As of 1:53 PM on Friday 21 Nov 2014 (Local Time) from KLOZ Reporting Station
Clear Clear  
Wind Chill: 41°   Ceiling: Unl
Heat Index: 41°   Visibility: 10mi
Dew Point: 12°   Wind: 3mph
Humidity: 31%   Direction: 50°NE
Pressure: 30.44"   Gusts: NA
Location:  37.1101°N, 83.7537°W
Report Text: KLOZ 211853Z AUTO 05003KT 10SM CLR 05/M11 A3044 RMK AO2 SLP318 T00501111
Loading
Personal Weather Stations






























Interactive Weather Map New forecast layout! Learn more

10-Day Weather Forecast

Advertisements
Track Severe Weather on mobile